• Join FlightAware (Why Join?)
  • Login
  • US Flag 
11:59AM EDT


 

Airport Tracker/Info


-or-


 

Live Flight TrackerFlight Track Log ✈ BER6298 ✈ 25-Apr-2013 ✈ EDDM / MUC - EDDH / HAM

Flight Track Log - Related Links

Times and Time Zones

All times are in EDT time to prevent confusion due to time zone crossing. See the BER6298 flight status page for this flight to view local times or setup timezone preferences in your user account.

Time Position Orientation Groundspeed Altitude Reporting Facility
EDT Latitude Longitude Course Direction KTS MPH feet Rate Location/Type
02:38AM 49.1367 11.5445 349° North  Level Estimated
02:39AM 49.2345 11.5138 348° North  Level Estimated
02:40AM 49.3323 11.4829 348° North  Level Estimated
02:41AM 49.4301 11.4520 348° North  Level Estimated
02:42AM 49.5279 11.4209 348° North  Level Estimated
02:43AM 49.6257 11.3896 348° North  Level Estimated
02:44AM 49.7235 11.3583 348° North  Level Estimated
02:45AM 49.8213 11.3268 348° North  Level Estimated
02:46AM 49.9190 11.2952 348° North  Level Estimated
02:47AM 50.0168 11.2635 348° North  Level Estimated
02:48AM 50.1145 11.2316 348° North  Level Estimated
02:49AM 50.2123 11.1996 348° North  Level Estimated
02:50AM 50.3100 11.1675 348° North  Level Estimated
02:51AM 50.4077 11.1353 348° North  Level Estimated
02:52AM 50.5054 11.1029 348° North  Level Estimated
02:53AM 50.6031 11.0703 348° North  Level Estimated
02:54AM 50.7008 11.0377 348° North  Level Estimated
02:55AM 50.7985 11.0049 348° North  Level Estimated
02:56AM 50.8962 10.9719 348° North  Level Estimated
02:57AM 50.9939 10.9389 348° North  Level Estimated
02:58AM 51.0915 10.9057 348° North  Level Estimated
02:59AM 51.1892 10.8723 348° North  Level Estimated
03:00AM 51.2868 10.8388 348° North  Level Estimated
03:01AM 51.3844 10.8052 348° North  Level Estimated
03:02AM 51.4821 10.7714 348° North  Level Estimated
03:03AM 51.5797 10.7375 348° North  Level Estimated
03:04AM 51.6773 10.7034 348° North  Level Estimated
03:05AM 51.7749 10.6692 348° North  Level Estimated
03:06AM 51.8724 10.6348 348° North  Level Estimated
03:07AM 51.9700 10.6003 348° North  Level Estimated
03:08AM 52.0676 10.5656 348° North  Level Estimated
03:09AM 52.1651 10.5308 348° North  Level Estimated
03:10AM 52.2627 10.4958 348° North  Level Estimated
03:11AM 52.3602 10.4607 348° North  Level Estimated
03:12AM 52.4577 10.4254 348° North  Level Estimated
03:13AM 52.5552 10.3900 348° North  Level Estimated
03:14AM 52.6527 10.3544 348° North  Level Estimated
03:15AM 52.7502 10.3187 347° North  Level Estimated
03:16AM 52.8477 10.2827 347° North  Level Estimated
03:17AM 52.9451 10.2467 347° North  Level Estimated
03:18AM 53.0426 10.2104 347° North  Level Estimated
03:19AM 53.1400 10.1740 347° North  Level Estimated
03:20AM 53.2375 10.1375 347° North  Level Estimated
03:21AM 53.3349 10.1007 347° North  Level Estimated
03:22AM 53.4323 10.0638 347° North  Level Estimated
03:23AM 53.5297 10.0267 347° North  Level Estimated
03:24AM 53.6271 9.9895 347° North  Level Estimated
03:25AM 53.6304 9.9882 347° North  Level Estimated
03:26AM 53.6304 9.9882 230° Southwest  Level Estimated
03:27AM 53.6304 9.9882 230° Southwest  Level Estimated
03:28AM 53.6304 9.9882 230° Southwest  Level Estimated
03:29AM 53.6304 9.9882 230° Southwest  Level Estimated
03:30AM 53.6304 9.9882 230° Southwest  Level Estimated
03:31AM 53.6304 9.9882 230° Southwest  Level Estimated
03:32AM 53.6304 9.9882 230° Southwest  Level Estimated
03:33AM 53.6304 9.9882 230° Southwest  Level Estimated
03:34AM 53.6304 9.9882 230° Southwest  Level Estimated
03:35AM 53.6304 9.9882 230° Southwest  Level Estimated
03:36AM 53.6304 9.9882 230° Southwest  Level Estimated
03:37AM 53.6304 9.9882 230° Southwest  Level Estimated
03:38AM 53.6304 9.9882 230° Southwest  Level Estimated
03:39AM 53.6304 9.9882 230° Southwest  Level Estimated
03:40AM 53.6304 9.9882 230° Southwest  Level Estimated